sensor_id;sensor_type;location;lat;lon;timestamp;P1;durP1;ratioP1;P2;durP2;ratioP2
22064;SDS011;11197;53.110;8.468;2023-11-19T00:00:46;19.67;;;14.25;;
22064;SDS011;11197;53.110;8.468;2023-11-19T00:03:12;20.48;;;15.00;;
22064;SDS011;11197;53.110;8.468;2023-11-19T00:05:38;19.55;;;15.10;;
22064;SDS011;11197;53.110;8.468;2023-11-19T00:08:04;18.92;;;14.93;;
22064;SDS011;11197;53.110;8.468;2023-11-19T00:10:31;22.27;;;15.85;;
22064;SDS011;11197;53.110;8.468;2023-11-19T00:12:57;23.65;;;17.08;;
22064;SDS011;11197;53.110;8.468;2023-11-19T00:15:22;24.23;;;17.67;;
22064;SDS011;11197;53.110;8.468;2023-11-19T00:17:49;25.05;;;17.50;;
22064;SDS011;11197;53.110;8.468;2023-11-19T00:20:18;27.50;;;18.60;;
22064;SDS011;11197;53.110;8.468;2023-11-19T00:22:44;29.83;;;19.05;;
22064;SDS011;11197;53.110;8.468;2023-11-19T00:25:13;30.00;;;18.90;;
22064;SDS011;11197;53.110;8.468;2023-11-19T00:27:39;31.77;;;20.85;;
22064;SDS011;11197;53.110;8.468;2023-11-19T00:30:05;34.50;;;22.08;;
22064;SDS011;11197;53.110;8.468;2023-11-19T00:32:32;38.72;;;21.90;;
22064;SDS011;11197;53.110;8.468;2023-11-19T00:34:59;34.15;;;20.52;;
22064;SDS011;11197;53.110;8.468;2023-11-19T00:37:24;34.10;;;21.35;;
22064;SDS011;11197;53.110;8.468;2023-11-19T00:39:50;35.95;;;21.85;;
22064;SDS011;11197;53.110;8.468;2023-11-19T00:42:17;36.95;;;22.15;;
22064;SDS011;11197;53.110;8.468;2023-11-19T00:44:43;33.67;;;21.52;;
22064;SDS011;11197;53.110;8.468;2023-11-19T00:47:08;35.85;;;21.55;;
22064;SDS011;11197;53.110;8.468;2023-11-19T00:49:34;37.45;;;22.45;;
22064;SDS011;11197;53.110;8.468;2023-11-19T00:52:00;36.38;;;21.58;;
22064;SDS011;11197;53.110;8.468;2023-11-19T00:54:27;32.92;;;20.58;;
22064;SDS011;11197;53.110;8.468;2023-11-19T00:56:53;33.63;;;20.25;;
22064;SDS011;11197;53.110;8.468;2023-11-19T00:59:19;41.00;;;22.35;;
22064;SDS011;11197;53.110;8.468;2023-11-19T01:01:45;39.65;;;22.27;;
22064;SDS011;11197;53.110;8.468;2023-11-19T01:04:13;35.50;;;20.33;;
22064;SDS011;11197;53.110;8.468;2023-11-19T01:06:39;34.85;;;20.63;;
22064;SDS011;11197;53.110;8.468;2023-11-19T01:09:07;34.20;;;19.33;;
22064;SDS011;11197;53.110;8.468;2023-11-19T01:11:34;38.58;;;19.73;;
22064;SDS011;11197;53.110;8.468;2023-11-19T01:14:00;36.25;;;19.27;;
22064;SDS011;11197;53.110;8.468;2023-11-19T01:16:26;31.10;;;18.30;;
22064;SDS011;11197;53.110;8.468;2023-11-19T01:18:51;34.22;;;18.60;;
22064;SDS011;11197;53.110;8.468;2023-11-19T01:21:17;33.88;;;18.40;;
22064;SDS011;11197;53.110;8.468;2023-11-19T01:26:19;34.40;;;18.20;;
22064;SDS011;11197;53.110;8.468;2023-11-19T01:28:45;33.60;;;17.77;;
22064;SDS011;11197;53.110;8.468;2023-11-19T01:31:14;33.20;;;17.67;;
22064;SDS011;11197;53.110;8.468;2023-11-19T01:33:40;30.65;;;17.52;;
22064;SDS011;11197;53.110;8.468;2023-11-19T01:36:07;27.55;;;17.33;;
22064;SDS011;11197;53.110;8.468;2023-11-19T01:38:33;31.98;;;17.42;;
22064;SDS011;11197;53.110;8.468;2023-11-19T01:41:00;34.35;;;18.33;;
22064;SDS011;11197;53.110;8.468;2023-11-19T01:43:34;37.28;;;19.58;;
22064;SDS011;11197;53.110;8.468;2023-11-19T01:46:02;35.83;;;19.23;;
22064;SDS011;11197;53.110;8.468;2023-11-19T01:48:29;37.03;;;20.08;;
22064;SDS011;11197;53.110;8.468;2023-11-19T01:50:57;34.60;;;19.85;;
22064;SDS011;11197;53.110;8.468;2023-11-19T01:53:23;38.05;;;21.48;;
22064;SDS011;11197;53.110;8.468;2023-11-19T01:55:50;40.35;;;21.73;;
22064;SDS011;11197;53.110;8.468;2023-11-19T01:58:16;40.33;;;21.38;;
22064;SDS011;11197;53.110;8.468;2023-11-19T02:00:44;38.53;;;21.73;;
22064;SDS011;11197;53.110;8.468;2023-11-19T02:03:10;37.45;;;21.02;;
22064;SDS011;11197;53.110;8.468;2023-11-19T02:05:37;39.67;;;21.23;;
22064;SDS011;11197;53.110;8.468;2023-11-19T02:08:03;38.33;;;21.17;;
22064;SDS011;11197;53.110;8.468;2023-11-19T02:10:29;36.83;;;20.52;;
22064;SDS011;11197;53.110;8.468;2023-11-19T02:12:57;38.20;;;20.70;;
22064;SDS011;11197;53.110;8.468;2023-11-19T02:15:23;41.63;;;21.83;;
22064;SDS011;11197;53.110;8.468;2023-11-19T02:17:49;41.92;;;21.38;;
22064;SDS011;11197;53.110;8.468;2023-11-19T02:20:15;40.20;;;21.55;;
22064;SDS011;11197;53.110;8.468;2023-11-19T02:22:41;41.78;;;21.60;;
22064;SDS011;11197;53.110;8.468;2023-11-19T02:25:09;49.72;;;23.73;;
22064;SDS011;11197;53.110;8.468;2023-11-19T02:28:01;41.63;;;23.03;;
22064;SDS011;11197;53.110;8.468;2023-11-19T02:30:28;50.10;;;25.10;;
22064;SDS011;11197;53.110;8.468;2023-11-19T02:32:54;44.38;;;23.30;;
22064;SDS011;11197;53.110;8.468;2023-11-19T02:35:23;48.67;;;25.08;;
22064;SDS011;11197;53.110;8.468;2023-11-19T02:37:52;51.58;;;24.52;;
22064;SDS011;11197;53.110;8.468;2023-11-19T02:40:19;49.50;;;24.75;;
22064;SDS011;11197;53.110;8.468;2023-11-19T02:42:45;54.97;;;26.70;;
22064;SDS011;11197;53.110;8.468;2023-11-19T02:45:10;55.42;;;26.10;;
22064;SDS011;11197;53.110;8.468;2023-11-19T02:47:42;51.83;;;26.15;;
22064;SDS011;11197;53.110;8.468;2023-11-19T02:50:09;53.17;;;25.52;;
22064;SDS011;11197;53.110;8.468;2023-11-19T02:52:42;51.03;;;25.08;;
22064;SDS011;11197;53.110;8.468;2023-11-19T02:55:10;50.03;;;25.63;;
22064;SDS011;11197;53.110;8.468;2023-11-19T02:57:39;50.55;;;25.80;;
22064;SDS011;11197;53.110;8.468;2023-11-19T03:00:14;53.70;;;25.40;;
22064;SDS011;11197;53.110;8.468;2023-11-19T03:02:41;56.97;;;25.65;;
22064;SDS011;11197;53.110;8.468;2023-11-19T03:05:11;53.78;;;25.17;;
22064;SDS011;11197;53.110;8.468;2023-11-19T03:07:40;44.20;;;24.25;;
22064;SDS011;11197;53.110;8.468;2023-11-19T03:10:08;53.20;;;25.20;;
22064;SDS011;11197;53.110;8.468;2023-11-19T03:12:34;48.60;;;25.23;;
22064;SDS011;11197;53.110;8.468;2023-11-19T03:15:00;49.67;;;24.65;;
22064;SDS011;11197;53.110;8.468;2023-11-19T03:17:26;52.58;;;24.88;;
22064;SDS011;11197;53.110;8.468;2023-11-19T03:19:52;49.08;;;25.48;;
22064;SDS011;11197;53.110;8.468;2023-11-19T03:22:17;47.05;;;23.52;;
22064;SDS011;11197;53.110;8.468;2023-11-19T03:24:43;51.72;;;23.73;;
22064;SDS011;11197;53.110;8.468;2023-11-19T03:27:09;57.55;;;25.05;;
22064;SDS011;11197;53.110;8.468;2023-11-19T03:29:35;46.88;;;22.73;;
22064;SDS011;11197;53.110;8.468;2023-11-19T03:32:00;54.65;;;23.10;;
22064;SDS011;11197;53.110;8.468;2023-11-19T03:34:26;52.00;;;23.40;;
22064;SDS011;11197;53.110;8.468;2023-11-19T03:36:52;54.38;;;23.25;;
22064;SDS011;11197;53.110;8.468;2023-11-19T03:39:17;45.88;;;22.40;;
22064;SDS011;11197;53.110;8.468;2023-11-19T03:41:45;49.63;;;21.48;;
22064;SDS011;11197;53.110;8.468;2023-11-19T03:44:12;46.65;;;20.90;;
22064;SDS011;11197;53.110;8.468;2023-11-19T03:46:37;47.40;;;21.92;;
22064;SDS011;11197;53.110;8.468;2023-11-19T03:49:03;49.00;;;20.83;;
22064;SDS011;11197;53.110;8.468;2023-11-19T03:51:32;46.50;;;19.75;;
22064;SDS011;11197;53.110;8.468;2023-11-19T03:53:59;51.85;;;19.52;;
22064;SDS011;11197;53.110;8.468;2023-11-19T03:56:24;49.78;;;19.58;;
22064;SDS011;11197;53.110;8.468;2023-11-19T03:58:50;48.45;;;19.95;;
22064;SDS011;11197;53.110;8.468;2023-11-19T04:01:17;47.47;;;19.88;;
22064;SDS011;11197;53.110;8.468;2023-11-19T04:03:42;46.72;;;19.35;;
22064;SDS011;11197;53.110;8.468;2023-11-19T04:06:08;49.60;;;19.65;;
22064;SDS011;11197;53.110;8.468;2023-11-19T04:08:35;52.53;;;20.02;;
22064;SDS011;11197;53.110;8.468;2023-11-19T04:11:02;57.17;;;20.90;;
22064;SDS011;11197;53.110;8.468;2023-11-19T04:13:29;53.22;;;21.02;;
22064;SDS011;11197;53.110;8.468;2023-11-19T04:15:55;58.25;;;21.25;;
22064;SDS011;11197;53.110;8.468;2023-11-19T04:18:20;50.90;;;21.20;;
22064;SDS011;11197;53.110;8.468;2023-11-19T04:20:46;54.95;;;21.10;;
22064;SDS011;11197;53.110;8.468;2023-11-19T04:23:12;55.78;;;19.92;;
22064;SDS011;11197;53.110;8.468;2023-11-19T04:25:37;59.58;;;21.02;;
22064;SDS011;11197;53.110;8.468;2023-11-19T04:28:03;53.78;;;19.67;;
22064;SDS011;11197;53.110;8.468;2023-11-19T04:30:29;58.97;;;20.67;;
22064;SDS011;11197;53.110;8.468;2023-11-19T04:32:57;56.88;;;20.63;;
22064;SDS011;11197;53.110;8.468;2023-11-19T04:35:22;44.80;;;19.17;;
22064;SDS011;11197;53.110;8.468;2023-11-19T04:37:48;47.95;;;18.50;;
22064;SDS011;11197;53.110;8.468;2023-11-19T04:40:14;50.95;;;18.63;;
22064;SDS011;11197;53.110;8.468;2023-11-19T04:42:39;47.60;;;18.73;;
22064;SDS011;11197;53.110;8.468;2023-11-19T04:45:05;49.97;;;19.17;;
22064;SDS011;11197;53.110;8.468;2023-11-19T04:47:32;50.42;;;18.20;;
22064;SDS011;11197;53.110;8.468;2023-11-19T04:49:59;48.83;;;17.38;;
22064;SDS011;11197;53.110;8.468;2023-11-19T04:52:25;46.92;;;17.85;;
22064;SDS011;11197;53.110;8.468;2023-11-19T04:54:50;43.60;;;16.92;;
22064;SDS011;11197;53.110;8.468;2023-11-19T04:57:16;43.58;;;16.55;;
22064;SDS011;11197;53.110;8.468;2023-11-19T04:59:42;42.20;;;16.55;;
22064;SDS011;11197;53.110;8.468;2023-11-19T05:02:08;40.60;;;15.90;;
22064;SDS011;11197;53.110;8.468;2023-11-19T05:04:34;47.45;;;15.50;;
22064;SDS011;11197;53.110;8.468;2023-11-19T05:07:00;35.88;;;13.98;;
22064;SDS011;11197;53.110;8.468;2023-11-19T05:09:26;42.03;;;14.38;;
22064;SDS011;11197;53.110;8.468;2023-11-19T05:11:52;37.35;;;13.63;;
22064;SDS011;11197;53.110;8.468;2023-11-19T05:14:17;49.90;;;13.60;;
22064;SDS011;11197;53.110;8.468;2023-11-19T05:16:47;42.60;;;12.95;;
22064;SDS011;11197;53.110;8.468;2023-11-19T05:19:13;36.53;;;12.75;;
22064;SDS011;11197;53.110;8.468;2023-11-19T05:21:41;37.00;;;12.00;;
22064;SDS011;11197;53.110;8.468;2023-11-19T05:24:10;36.20;;;12.05;;
22064;SDS011;11197;53.110;8.468;2023-11-19T05:26:36;37.72;;;11.10;;
22064;SDS011;11197;53.110;8.468;2023-11-19T05:29:03;36.45;;;11.75;;
22064;SDS011;11197;53.110;8.468;2023-11-19T05:31:29;40.78;;;10.45;;
22064;SDS011;11197;53.110;8.468;2023-11-19T05:33:55;41.35;;;11.00;;
22064;SDS011;11197;53.110;8.468;2023-11-19T05:36:20;34.35;;;10.25;;
22064;SDS011;11197;53.110;8.468;2023-11-19T05:38:46;35.80;;;9.90;;
22064;SDS011;11197;53.110;8.468;2023-11-19T05:41:12;43.97;;;9.98;;
22064;SDS011;11197;53.110;8.468;2023-11-19T05:43:38;40.35;;;9.48;;
22064;SDS011;11197;53.110;8.468;2023-11-19T05:46:05;37.20;;;8.48;;
22064;SDS011;11197;53.110;8.468;2023-11-19T05:48:31;33.58;;;8.43;;
22064;SDS011;11197;53.110;8.468;2023-11-19T05:50:57;38.15;;;8.40;;
22064;SDS011;11197;53.110;8.468;2023-11-19T05:53:23;33.80;;;8.27;;
22064;SDS011;11197;53.110;8.468;2023-11-19T05:55:49;40.47;;;8.98;;
22064;SDS011;11197;53.110;8.468;2023-11-19T05:58:27;38.67;;;8.15;;
22064;SDS011;11197;53.110;8.468;2023-11-19T06:00:57;34.03;;;7.60;;
22064;SDS011;11197;53.110;8.468;2023-11-19T06:03:25;34.70;;;6.97;;
22064;SDS011;11197;53.110;8.468;2023-11-19T06:05:52;39.45;;;7.57;;
22064;SDS011;11197;53.110;8.468;2023-11-19T06:08:19;41.33;;;8.32;;
22064;SDS011;11197;53.110;8.468;2023-11-19T06:10:46;39.13;;;7.63;;
22064;SDS011;11197;53.110;8.468;2023-11-19T06:13:12;37.58;;;6.65;;
22064;SDS011;11197;53.110;8.468;2023-11-19T06:15:40;34.40;;;6.47;;
22064;SDS011;11197;53.110;8.468;2023-11-19T06:18:09;41.08;;;6.72;;
22064;SDS011;11197;53.110;8.468;2023-11-19T06:20:36;33.25;;;6.00;;
22064;SDS011;11197;53.110;8.468;2023-11-19T06:23:02;44.22;;;6.72;;
22064;SDS011;11197;53.110;8.468;2023-11-19T06:25:28;33.67;;;6.40;;
22064;SDS011;11197;53.110;8.468;2023-11-19T06:27:53;33.13;;;6.18;;
22064;SDS011;11197;53.110;8.468;2023-11-19T06:30:19;36.40;;;6.20;;
22064;SDS011;11197;53.110;8.468;2023-11-19T06:32:45;32.33;;;6.10;;
22064;SDS011;11197;53.110;8.468;2023-11-19T06:35:12;39.53;;;6.20;;
22064;SDS011;11197;53.110;8.468;2023-11-19T06:37:39;38.38;;;6.30;;
22064;SDS011;11197;53.110;8.468;2023-11-19T06:40:05;33.05;;;5.85;;
22064;SDS011;11197;53.110;8.468;2023-11-19T06:42:32;37.17;;;6.00;;
22064;SDS011;11197;53.110;8.468;2023-11-19T06:44:58;42.17;;;6.55;;
22064;SDS011;11197;53.110;8.468;2023-11-19T06:47:26;38.03;;;6.38;;
22064;SDS011;11197;53.110;8.468;2023-11-19T06:49:53;35.80;;;5.82;;
22064;SDS011;11197;53.110;8.468;2023-11-19T06:52:18;45.88;;;6.38;;
22064;SDS011;11197;53.110;8.468;2023-11-19T06:54:44;39.85;;;6.78;;
22064;SDS011;11197;53.110;8.468;2023-11-19T06:57:12;45.92;;;6.22;;
22064;SDS011;11197;53.110;8.468;2023-11-19T06:59:38;42.92;;;6.65;;
22064;SDS011;11197;53.110;8.468;2023-11-19T07:02:04;42.55;;;5.90;;
22064;SDS011;11197;53.110;8.468;2023-11-19T07:04:31;42.63;;;5.93;;
22064;SDS011;11197;53.110;8.468;2023-11-19T07:06:58;44.92;;;6.80;;
22064;SDS011;11197;53.110;8.468;2023-11-19T07:09:24;41.88;;;6.28;;
22064;SDS011;11197;53.110;8.468;2023-11-19T07:11:50;33.97;;;5.63;;
22064;SDS011;11197;53.110;8.468;2023-11-19T07:14:17;37.90;;;5.55;;
22064;SDS011;11197;53.110;8.468;2023-11-19T07:16:43;45.00;;;6.45;;
22064;SDS011;11197;53.110;8.468;2023-11-19T07:19:09;46.33;;;5.50;;
22064;SDS011;11197;53.110;8.468;2023-11-19T07:21:35;36.67;;;5.80;;
22064;SDS011;11197;53.110;8.468;2023-11-19T07:24:04;41.92;;;6.10;;
22064;SDS011;11197;53.110;8.468;2023-11-19T07:26:31;40.63;;;6.03;;
22064;SDS011;11197;53.110;8.468;2023-11-19T07:28:57;39.20;;;5.95;;
22064;SDS011;11197;53.110;8.468;2023-11-19T07:31:23;37.53;;;5.68;;
22064;SDS011;11197;53.110;8.468;2023-11-19T07:33:49;44.15;;;5.95;;
22064;SDS011;11197;53.110;8.468;2023-11-19T07:36:15;40.97;;;5.93;;
22064;SDS011;11197;53.110;8.468;2023-11-19T07:38:41;45.58;;;6.47;;
22064;SDS011;11197;53.110;8.468;2023-11-19T07:41:07;43.45;;;5.72;;
22064;SDS011;11197;53.110;8.468;2023-11-19T07:43:37;46.22;;;6.82;;
22064;SDS011;11197;53.110;8.468;2023-11-19T07:46:15;35.70;;;5.38;;
22064;SDS011;11197;53.110;8.468;2023-11-19T07:48:41;39.75;;;5.55;;
22064;SDS011;11197;53.110;8.468;2023-11-19T07:51:07;45.92;;;6.45;;
22064;SDS011;11197;53.110;8.468;2023-11-19T07:53:33;38.55;;;5.70;;
22064;SDS011;11197;53.110;8.468;2023-11-19T07:55:59;43.35;;;6.65;;
22064;SDS011;11197;53.110;8.468;2023-11-19T07:58:25;44.85;;;6.13;;
22064;SDS011;11197;53.110;8.468;2023-11-19T08:00:51;34.50;;;5.43;;
22064;SDS011;11197;53.110;8.468;2023-11-19T08:03:17;47.53;;;5.93;;
22064;SDS011;11197;53.110;8.468;2023-11-19T08:05:44;38.47;;;5.97;;
22064;SDS011;11197;53.110;8.468;2023-11-19T08:08:12;41.70;;;5.97;;
22064;SDS011;11197;53.110;8.468;2023-11-19T08:10:38;33.00;;;4.88;;
22064;SDS011;11197;53.110;8.468;2023-11-19T08:13:05;40.15;;;5.88;;
22064;SDS011;11197;53.110;8.468;2023-11-19T08:15:32;41.88;;;5.82;;
22064;SDS011;11197;53.110;8.468;2023-11-19T08:17:58;39.53;;;5.53;;
22064;SDS011;11197;53.110;8.468;2023-11-19T08:20:23;39.50;;;6.03;;
22064;SDS011;11197;53.110;8.468;2023-11-19T08:22:49;35.38;;;5.22;;
22064;SDS011;11197;53.110;8.468;2023-11-19T08:25:15;42.08;;;5.40;;
22064;SDS011;11197;53.110;8.468;2023-11-19T08:27:41;47.08;;;6.18;;
22064;SDS011;11197;53.110;8.468;2023-11-19T08:30:08;38.50;;;5.85;;
22064;SDS011;11197;53.110;8.468;2023-11-19T08:32:34;44.15;;;6.30;;
22064;SDS011;11197;53.110;8.468;2023-11-19T08:35:00;40.17;;;6.18;;
22064;SDS011;11197;53.110;8.468;2023-11-19T08:37:25;36.10;;;5.95;;
22064;SDS011;11197;53.110;8.468;2023-11-19T08:39:52;46.67;;;5.85;;
22064;SDS011;11197;53.110;8.468;2023-11-19T08:42:18;32.50;;;4.80;;
22064;SDS011;11197;53.110;8.468;2023-11-19T08:44:44;41.65;;;5.85;;
22064;SDS011;11197;53.110;8.468;2023-11-19T08:47:15;33.72;;;4.80;;
22064;SDS011;11197;53.110;8.468;2023-11-19T08:49:44;41.63;;;5.65;;
22064;SDS011;11197;53.110;8.468;2023-11-19T08:52:10;43.55;;;5.65;;
22064;SDS011;11197;53.110;8.468;2023-11-19T08:54:36;36.50;;;5.50;;
22064;SDS011;11197;53.110;8.468;2023-11-19T08:57:02;40.03;;;5.47;;
22064;SDS011;11197;53.110;8.468;2023-11-19T08:59:28;33.13;;;5.25;;
22064;SDS011;11197;53.110;8.468;2023-11-19T09:01:54;37.25;;;5.95;;
22064;SDS011;11197;53.110;8.468;2023-11-19T09:04:20;42.55;;;5.28;;
22064;SDS011;11197;53.110;8.468;2023-11-19T09:06:48;38.08;;;5.85;;
22064;SDS011;11197;53.110;8.468;2023-11-19T09:09:14;37.50;;;5.20;;
22064;SDS011;11197;53.110;8.468;2023-11-19T09:11:40;45.65;;;5.75;;
22064;SDS011;11197;53.110;8.468;2023-11-19T09:14:06;39.55;;;5.90;;
22064;SDS011;11197;53.110;8.468;2023-11-19T09:16:32;15.10;;;2.80;;
22064;SDS011;11197;53.110;8.468;2023-11-19T09:18:57;20.65;;;3.40;;
22064;SDS011;11197;53.110;8.468;2023-11-19T09:21:24;35.05;;;5.20;;
22064;SDS011;11197;53.110;8.468;2023-11-19T09:23:50;31.98;;;4.78;;
22064;SDS011;11197;53.110;8.468;2023-11-19T09:26:16;34.22;;;5.45;;
22064;SDS011;11197;53.110;8.468;2023-11-19T09:28:42;31.35;;;5.20;;
22064;SDS011;11197;53.110;8.468;2023-11-19T09:31:14;37.00;;;5.35;;
22064;SDS011;11197;53.110;8.468;2023-11-19T09:33:43;25.60;;;3.83;;
22064;SDS011;11197;53.110;8.468;2023-11-19T09:36:10;35.03;;;5.63;;
22064;SDS011;11197;53.110;8.468;2023-11-19T09:38:39;41.90;;;5.82;;
22064;SDS011;11197;53.110;8.468;2023-11-19T09:41:05;34.88;;;5.68;;
22064;SDS011;11197;53.110;8.468;2023-11-19T09:43:34;38.58;;;6.32;;
22064;SDS011;11197;53.110;8.468;2023-11-19T09:46:04;36.15;;;5.90;;
22064;SDS011;11197;53.110;8.468;2023-11-19T09:48:34;41.35;;;5.80;;
22064;SDS011;11197;53.110;8.468;2023-11-19T09:51:01;33.80;;;5.53;;
22064;SDS011;11197;53.110;8.468;2023-11-19T09:53:27;44.15;;;6.00;;
22064;SDS011;11197;53.110;8.468;2023-11-19T09:55:53;38.25;;;5.55;;
22064;SDS011;11197;53.110;8.468;2023-11-19T09:58:20;39.25;;;5.88;;
22064;SDS011;11197;53.110;8.468;2023-11-19T10:00:45;35.78;;;6.32;;
22064;SDS011;11197;53.110;8.468;2023-11-19T10:03:12;37.47;;;5.50;;
22064;SDS011;11197;53.110;8.468;2023-11-19T10:05:39;36.25;;;5.82;;
22064;SDS011;11197;53.110;8.468;2023-11-19T10:08:05;37.08;;;5.55;;
22064;SDS011;11197;53.110;8.468;2023-11-19T10:10:32;47.03;;;5.85;;
22064;SDS011;11197;53.110;8.468;2023-11-19T10:12:59;35.17;;;5.43;;
22064;SDS011;11197;53.110;8.468;2023-11-19T10:15:25;32.28;;;5.65;;
22064;SDS011;11197;53.110;8.468;2023-11-19T10:17:55;40.60;;;5.82;;
22064;SDS011;11197;53.110;8.468;2023-11-19T10:20:21;56.03;;;12.87;;
22064;SDS011;11197;53.110;8.468;2023-11-19T10:22:47;62.75;;;18.80;;
22064;SDS011;11197;53.110;8.468;2023-11-19T10:25:26;45.95;;;10.90;;
22064;SDS011;11197;53.110;8.468;2023-11-19T10:27:53;39.75;;;7.28;;
22064;SDS011;11197;53.110;8.468;2023-11-19T10:30:20;44.63;;;7.50;;
22064;SDS011;11197;53.110;8.468;2023-11-19T10:35:28;36.35;;;5.70;;
22064;SDS011;11197;53.110;8.468;2023-11-19T10:37:53;36.72;;;6.15;;
22064;SDS011;11197;53.110;8.468;2023-11-19T10:40:19;39.50;;;5.78;;
22064;SDS011;11197;53.110;8.468;2023-11-19T10:42:45;38.47;;;5.32;;
22064;SDS011;11197;53.110;8.468;2023-11-19T10:45:23;36.72;;;5.75;;
22064;SDS011;11197;53.110;8.468;2023-11-19T10:47:49;30.55;;;5.28;;
22064;SDS011;11197;53.110;8.468;2023-11-19T10:50:17;37.88;;;5.47;;
22064;SDS011;11197;53.110;8.468;2023-11-19T10:52:44;33.80;;;5.15;;
22064;SDS011;11197;53.110;8.468;2023-11-19T10:55:12;41.43;;;6.63;;
22064;SDS011;11197;53.110;8.468;2023-11-19T10:57:43;35.38;;;5.20;;
22064;SDS011;11197;53.110;8.468;2023-11-19T11:00:11;39.95;;;5.88;;
22064;SDS011;11197;53.110;8.468;2023-11-19T11:02:41;43.40;;;5.82;;
22064;SDS011;11197;53.110;8.468;2023-11-19T11:05:12;37.50;;;5.75;;
22064;SDS011;11197;53.110;8.468;2023-11-19T11:07:39;46.58;;;6.13;;
22064;SDS011;11197;53.110;8.468;2023-11-19T11:10:07;38.92;;;5.57;;
22064;SDS011;11197;53.110;8.468;2023-11-19T11:12:37;39.40;;;5.65;;
22064;SDS011;11197;53.110;8.468;2023-11-19T11:15:04;37.42;;;5.95;;
22064;SDS011;11197;53.110;8.468;2023-11-19T11:17:32;37.17;;;5.50;;
22064;SDS011;11197;53.110;8.468;2023-11-19T11:19:59;40.50;;;5.85;;
22064;SDS011;11197;53.110;8.468;2023-11-19T11:22:24;40.28;;;5.70;;
22064;SDS011;11197;53.110;8.468;2023-11-19T11:25:16;44.78;;;5.80;;
22064;SDS011;11197;53.110;8.468;2023-11-19T11:35:49;34.92;;;5.78;;
22064;SDS011;11197;53.110;8.468;2023-11-19T11:38:26;33.67;;;6.10;;
22064;SDS011;11197;53.110;8.468;2023-11-19T11:43:45;36.53;;;5.57;;
22064;SDS011;11197;53.110;8.468;2023-11-19T11:49:00;40.75;;;5.85;;
22064;SDS011;11197;53.110;8.468;2023-11-19T11:51:57;35.28;;;5.57;;
22064;SDS011;11197;53.110;8.468;2023-11-19T12:02:14;34.83;;;5.63;;
22064;SDS011;11197;53.110;8.468;2023-11-19T12:04:41;37.40;;;5.22;;
22064;SDS011;11197;53.110;8.468;2023-11-19T12:07:23;38.20;;;5.43;;
22064;SDS011;11197;53.110;8.468;2023-11-19T12:10:05;32.08;;;4.93;;
22064;SDS011;11197;53.110;8.468;2023-11-19T12:12:32;34.75;;;5.20;;
22064;SDS011;11197;53.110;8.468;2023-11-19T12:20:04;39.03;;;5.38;;
22064;SDS011;11197;53.110;8.468;2023-11-19T12:22:34;36.13;;;5.38;;
22064;SDS011;11197;53.110;8.468;2023-11-19T12:25:02;26.70;;;4.40;;
22064;SDS011;11197;53.110;8.468;2023-11-19T12:27:29;34.47;;;5.50;;
22064;SDS011;11197;53.110;8.468;2023-11-19T12:29:55;27.77;;;4.97;;
22064;SDS011;11197;53.110;8.468;2023-11-19T12:32:22;32.40;;;4.88;;
22064;SDS011;11197;53.110;8.468;2023-11-19T12:34:47;34.80;;;5.30;;
22064;SDS011;11197;53.110;8.468;2023-11-19T12:37:13;22.27;;;3.80;;
22064;SDS011;11197;53.110;8.468;2023-11-19T12:39:39;24.67;;;4.22;;
22064;SDS011;11197;53.110;8.468;2023-11-19T12:42:05;33.25;;;4.93;;
22064;SDS011;11197;53.110;8.468;2023-11-19T12:44:30;31.73;;;4.65;;
22064;SDS011;11197;53.110;8.468;2023-11-19T12:49:34;22.63;;;4.53;;
22064;SDS011;11197;53.110;8.468;2023-11-19T12:52:00;15.80;;;3.20;;
22064;SDS011;11197;53.110;8.468;2023-11-19T12:54:35;17.13;;;2.58;;
22064;SDS011;11197;53.110;8.468;2023-11-19T12:57:02;13.48;;;2.33;;
22064;SDS011;11197;53.110;8.468;2023-11-19T12:59:30;12.82;;;2.38;;
22064;SDS011;11197;53.110;8.468;2023-11-19T13:01:59;12.15;;;2.30;;
22064;SDS011;11197;53.110;8.468;2023-11-19T13:04:29;10.05;;;2.10;;
22064;SDS011;11197;53.110;8.468;2023-11-19T13:06:58;8.15;;;1.50;;
22064;SDS011;11197;53.110;8.468;2023-11-19T13:09:25;11.27;;;1.50;;
22064;SDS011;11197;53.110;8.468;2023-11-19T13:11:54;6.82;;;1.42;;
22064;SDS011;11197;53.110;8.468;2023-11-19T13:14:21;8.10;;;1.55;;
22064;SDS011;11197;53.110;8.468;2023-11-19T13:16:48;8.32;;;1.45;;
22064;SDS011;11197;53.110;8.468;2023-11-19T13:19:14;7.05;;;1.38;;
22064;SDS011;11197;53.110;8.468;2023-11-19T13:21:44;7.00;;;1.40;;
22064;SDS011;11197;53.110;8.468;2023-11-19T13:24:12;8.10;;;1.70;;
22064;SDS011;11197;53.110;8.468;2023-11-19T13:26:38;9.23;;;1.70;;
22064;SDS011;11197;53.110;8.468;2023-11-19T13:29:04;13.70;;;1.70;;
22064;SDS011;11197;53.110;8.468;2023-11-19T13:31:29;10.23;;;1.50;;
22064;SDS011;11197;53.110;8.468;2023-11-19T13:33:55;8.07;;;1.67;;
22064;SDS011;11197;53.110;8.468;2023-11-19T13:36:21;11.20;;;1.80;;
22064;SDS011;11197;53.110;8.468;2023-11-19T13:38:47;9.95;;;1.70;;
22064;SDS011;11197;53.110;8.468;2023-11-19T13:41:13;8.65;;;2.22;;
22064;SDS011;11197;53.110;8.468;2023-11-19T13:43:39;12.10;;;2.20;;
22064;SDS011;11197;53.110;8.468;2023-11-19T13:46:05;16.10;;;2.97;;
22064;SDS011;11197;53.110;8.468;2023-11-19T13:48:31;17.60;;;3.55;;
22064;SDS011;11197;53.110;8.468;2023-11-19T13:50:57;17.67;;;3.50;;
22064;SDS011;11197;53.110;8.468;2023-11-19T13:53:23;21.30;;;3.30;;
22064;SDS011;11197;53.110;8.468;2023-11-19T13:55:49;23.23;;;3.65;;
22064;SDS011;11197;53.110;8.468;2023-11-19T13:58:15;23.60;;;4.25;;
22064;SDS011;11197;53.110;8.468;2023-11-19T14:00:41;23.48;;;3.83;;
22064;SDS011;11197;53.110;8.468;2023-11-19T14:03:08;24.40;;;4.30;;
22064;SDS011;11197;53.110;8.468;2023-11-19T14:05:35;28.27;;;4.68;;
22064;SDS011;11197;53.110;8.468;2023-11-19T14:08:01;26.45;;;4.13;;
22064;SDS011;11197;53.110;8.468;2023-11-19T14:10:26;21.00;;;3.67;;
22064;SDS011;11197;53.110;8.468;2023-11-19T14:12:52;20.15;;;3.83;;
22064;SDS011;11197;53.110;8.468;2023-11-19T14:15:18;26.70;;;3.85;;
22064;SDS011;11197;53.110;8.468;2023-11-19T14:17:44;26.92;;;4.57;;
22064;SDS011;11197;53.110;8.468;2023-11-19T14:20:09;30.05;;;4.03;;
22064;SDS011;11197;53.110;8.468;2023-11-19T14:22:42;33.55;;;5.30;;
22064;SDS011;11197;53.110;8.468;2023-11-19T14:25:08;28.58;;;4.50;;
22064;SDS011;11197;53.110;8.468;2023-11-19T14:27:41;21.00;;;3.70;;
22064;SDS011;11197;53.110;8.468;2023-11-19T14:30:08;17.60;;;3.42;;
22064;SDS011;11197;53.110;8.468;2023-11-19T14:32:36;18.13;;;3.15;;
22064;SDS011;11197;53.110;8.468;2023-11-19T14:35:04;19.83;;;3.15;;
22064;SDS011;11197;53.110;8.468;2023-11-19T14:37:31;22.55;;;3.55;;
22064;SDS011;11197;53.110;8.468;2023-11-19T14:39:57;19.42;;;3.10;;
22064;SDS011;11197;53.110;8.468;2023-11-19T14:42:23;18.42;;;2.65;;
22064;SDS011;11197;53.110;8.468;2023-11-19T14:44:50;19.05;;;2.72;;
22064;SDS011;11197;53.110;8.468;2023-11-19T14:47:18;24.92;;;2.80;;
22064;SDS011;11197;53.110;8.468;2023-11-19T14:49:44;15.48;;;2.55;;
22064;SDS011;11197;53.110;8.468;2023-11-19T14:52:09;16.25;;;2.80;;
22064;SDS011;11197;53.110;8.468;2023-11-19T14:54:36;18.05;;;3.30;;
22064;SDS011;11197;53.110;8.468;2023-11-19T14:57:02;22.27;;;3.42;;
22064;SDS011;11197;53.110;8.468;2023-11-19T14:59:28;21.67;;;3.45;;
22064;SDS011;11197;53.110;8.468;2023-11-19T15:01:54;22.00;;;3.58;;
22064;SDS011;11197;53.110;8.468;2023-11-19T15:04:19;18.08;;;3.45;;